Web Počasí Slunečno.cz™ (Podmínky, ePrivacy) používá cookies a personalizace pro reklamní účely. Pohybem po stránce vyjadřujete souhlas. Odejít

Aktuální počasí v Česku a ve světě - METAR

Seznam meteostanic umístěných nejčasteji na letišti v ČR a ve světě

Vyhledat místa podle abecedy:
A B C D E F G H I J K L M N O P Q R S T U V W X Y Z

Filtrovat:

ID stanice:
a/nebo
Název místa (fulltext):
 
Místo (ID)Naposledy načteno 
Holešov (Holesov) 04.12.2021 09:00 UTC Zobrazit data
Místo: Holešov
Teplota: 1 °C (pocitová: -9.5 °C)
Vítr: 8 m/s z(e) 160°
Počasí: skoro zataženo
Dohlednost: 40 km
Zákl. oblačnosti: 1/8 810 m;3/8 5100 m
Vlhkost: 65%
Hamburg (EDDH) 04.12.2021 08:50 UTC Zobrazit METAR
EDDH 040850Z 21007KT 9999 BKN006 04/03 Q0998 NOSIG
Hannover (EDDV) 04.12.2021 08:50 UTC Zobrazit METAR
EDDV 040850Z 16006KT 130V190 9999 -DZ OVC015 03/02 Q0999 TEMPO 4500 BKN010
Hanoi (VVNB) 04.12.2021 09:00 UTC Zobrazit METAR
VVNB 040900Z 03004KT 310V080 CAVOK 24/05 Q1019 NOSIG
Harare (FVHA) 13.09.2018 03:00 UTC Zobrazit METAR
FVHA 130300Z 07008KT CAVOK 14/07 Q1022 NOSIG
Havana (MUHA) 04.12.2021 05:50 UTC Zobrazit METAR
MUHA 040550Z 23002KT 9000 SCT030 16/16 Q1019
Helsinki (EFHK) 04.12.2021 08:50 UTC Zobrazit METAR
EFHK 040850Z 02007KT 9999 -SN FEW011 BKN025 M08/M10 Q1006 TEMPO 5000 BKN012
Hong Kong (VHHH) 04.12.2021 09:00 UTC Zobrazit METAR
VHHH 040900Z 29004KT 240V340 CAVOK 20/02 Q1021 NOSIG
Honiara (AGGH) 04.12.2021 09:00 UTC Zobrazit METAR
AGGH 040900Z 14002KT 9999 FEW016 BKN300 26/25 Q1004
Horta (LPHR) 03.12.2021 21:00 UTC Zobrazit METAR
LPHR 032100Z 25005KT 230V290 9999 FEW008 17/16 Q1031
Reklama

Reklama


Newslettter

Počasí na Váš email

Každý den Vám pošleme předpověď
Emaily chodí ráno a bez reklamy



Odhlásit newsletter

Reklama